Time;durP1;ratioP1;P1;durP2;ratioP2;P2;SDS_P1;SDS_P2;PMS_P1;PMS_P2;Temp;Humidity;BMP_temperature;BMP_pressure;BME280_temperature;BME280_humidity;BME280_pressure;Samples;Min_cycle;Max_cycle;Signal;HPM_P1;HPM_P2
2022/11/19 16:04:58;;;;;;;7.32;5.85;;;6.70;65.90;;;;;;5083332;27;20415;-68
2022/11/19 16:07:27;;;;;;;7.45;5.55;;;6.60;66.60;;;;;;5084057;28;20086;-68
2022/11/19 16:09:53;;;;;;;8.25;5.03;;;6.50;66.40;;;;;;5087013;28;20017;-68
2022/11/19 16:18:29;;;;;;;;;;;6.40;67.00;;;;;;5005878;28;20050;-68
2022/11/19 16:20:55;;;;;;;11.45;6.25;;;6.40;67.00;;;;;;5087732;28;19919;-68
2022/11/19 16:23:23;;;;;;;11.38;7.05;;;6.50;66.70;;;;;;5071285;28;20484;-69
2022/11/19 16:25:50;;;;;;;10.88;7.38;;;6.50;67.40;;;;;;5089470;28;20028;-70
2022/11/19 16:28:23;;;;;;;11.48;7.15;;;6.40;66.60;;;;;;5086249;28;20028;-69
2022/11/19 16:30:58;;;;;;;11.13;8.10;;;6.20;67.20;;;;;;5082956;28;20029;-70
2022/11/19 16:33:27;;;;;;;14.05;8.88;;;6.10;67.40;;;;;;5077112;28;20070;-69
2022/11/19 16:36:11;;;;;;;13.38;7.82;;;6.00;67.60;;;;;;5070471;28;20017;-69
2022/11/19 16:38:39;;;;;;;12.48;8.18;;;6.00;68.10;;;;;;5084667;28;20040;-68
2022/11/19 16:43:49;;;;;;;13.85;7.93;;;6.00;68.00;;;;;;5086463;28;20384;-68
2022/11/19 16:46:19;;;;;;;9.70;7.43;;;5.80;68.30;;;;;;5088707;28;20032;-69
2022/11/19 16:48:51;;;;;;;8.93;6.93;;;5.60;69.30;;;;;;5088331;28;20024;-68
2022/11/19 16:51:30;;;;;;;9.85;6.60;;;5.60;69.30;;;;;;5085695;28;20024;-69
2022/11/19 16:53:55;;;;;;;10.93;6.95;;;5.60;69.50;;;;;;5087598;28;20039;-69
2022/11/19 16:56:22;;;;;;;8.10;6.40;;;5.50;69.50;;;;;;5087239;28;20032;-69
2022/11/19 16:58:48;;;;;;;13.60;7.93;;;5.50;69.80;;;;;;5087265;28;20291;-71
2022/11/19 17:01:17;;;;;;;11.68;7.15;;;5.40;69.50;;;;;;5085548;28;20012;-71
2022/11/19 17:03:44;;;;;;;10.55;7.72;;;5.50;69.80;;;;;;5087081;28;20439;-69
2022/11/19 17:06:22;;;;;;;11.65;7.95;;;5.40;69.80;;;;;;5087781;28;20024;-69
2022/11/19 17:08:59;;;;;;;8.98;6.55;;;5.40;70.10;;;;;;5084909;28;20028;-69
2022/11/19 17:14:34;;;;;;;9.73;6.97;;;5.50;69.80;;;;;;5080931;28;20035;-70
2022/11/19 17:17:01;;;;;;;10.43;7.68;;;5.50;70.10;;;;;;5070649;28;20025;-70
2022/11/19 17:19:31;;;;;;;8.40;6.03;;;5.60;69.40;;;;;;5067429;28;20060;-70
2022/11/19 17:22:06;;;;;;;9.48;6.43;;;5.50;69.40;;;;;;5069620;28;20032;-70
2022/11/19 17:24:42;;;;;;;8.77;6.00;;;5.50;69.30;;;;;;5062282;28;20025;-69
2022/11/19 17:27:27;;;;;;;10.40;5.65;;;5.50;69.30;;;;;;5063421;28;20765;-68
2022/11/19 17:30:09;;;;;;;9.10;6.25;;;5.50;69.40;;;;;;5064393;28;20021;-68
2022/11/19 17:32:44;;;;;;;8.80;6.28;;;5.50;70.20;;;;;;5073122;28;20020;-68
2022/11/19 17:35:39;;;;;;;10.55;6.40;;;5.50;71.50;;;;;;5073073;28;20431;-68
2022/11/19 17:38:13;;;;;;;11.45;6.75;;;5.40;71.80;;;;;;5074567;28;20020;-69
2022/11/19 17:40:46;;;;;;;8.10;5.68;;;5.40;71.70;;;;;;5071090;28;20485;-69
2022/11/19 17:45:56;;;;;;;11.27;6.70;;;5.20;70.40;;;;;;5071519;28;20759;-68
2022/11/19 17:48:24;;;;;;;9.13;6.35;;;5.20;71.00;;;;;;5073150;28;20025;-68
2022/11/19 17:50:50;;;;;;;12.77;7.18;;;5.20;71.60;;;;;;5071379;28;20056;-68
2022/11/19 17:53:20;;;;;;;10.55;7.20;;;5.00;71.50;;;;;;5073816;28;20110;-68
2022/11/19 17:55:47;;;;;;;10.63;7.60;;;4.70;71.90;;;;;;5071740;28;20025;-69
2022/11/19 17:58:13;;;;;;;10.27;6.80;;;4.60;72.80;;;;;;5072920;28;20358;-68
2022/11/19 18:00:39;;;;;;;12.13;7.47;;;4.50;73.00;;;;;;5071884;28;20025;-68
2022/11/19 18:03:04;;;;;;;14.23;7.55;;;4.50;73.20;;;;;;5073061;28;20440;-68
2022/11/19 18:05:33;;;;;;;13.75;8.10;;;4.50;74.30;;;;;;5072967;28;20027;-68
2022/11/19 18:07:59;;;;;;;12.63;8.05;;;4.50;74.20;;;;;;5069584;28;20028;-68
2022/11/19 18:10:25;;;;;;;12.18;8.20;;;4.60;74.10;;;;;;5072754;28;20032;-69
2022/11/19 18:12:50;;;;;;;11.55;7.90;;;4.60;74.30;;;;;;5073237;28;20040;-69
2022/11/19 18:15:18;;;;;;;14.25;8.98;;;4.70;74.40;;;;;;5073266;28;20454;-70
2022/11/19 18:17:44;;;;;;;11.43;8.05;;;4.70;74.20;;;;;;5072874;28;20388;-70
2022/11/19 18:20:10;;;;;;;11.60;8.63;;;4.50;73.80;;;;;;5073333;28;20033;-70
2022/11/19 18:22:36;;;;;;;12.45;7.57;;;4.40;74.70;;;;;;5074192;28;20468;-71
2022/11/19 18:25:09;;;;;;;14.88;8.63;;;4.40;74.60;;;;;;5074089;28;20461;-71
2022/11/19 18:27:35;;;;;;;12.10;8.52;;;4.20;75.00;;;;;;5072240;28;20027;-71
2022/11/19 18:30:00;;;;;;;13.52;7.68;;;4.10;75.90;;;;;;5073357;28;20400;-70
2022/11/19 18:32:26;;;;;;;13.32;7.90;;;4.00;75.90;;;;;;5074143;28;20028;-69
2022/11/19 18:34:51;;;;;;;11.98;7.80;;;4.10;76.30;;;;;;5072575;28;20032;-70
2022/11/19 18:37:17;;;;;;;12.23;7.28;;;4.20;76.00;;;;;;5068232;28;20036;-70
2022/11/19 18:39:43;;;;;;;10.35;7.20;;;4.30;75.90;;;;;;5071424;28;20056;-72
2022/11/19 18:42:11;;;;;;;16.55;8.57;;;4.50;75.60;;;;;;5070068;28;20384;-71
2022/11/19 18:44:37;;;;;;;13.48;8.68;;;4.60;75.10;;;;;;5085738;28;20028;-70
2022/11/19 18:47:09;;;;;;;13.35;8.95;;;4.50;74.90;;;;;;5071114;28;20528;-69
2022/11/19 18:49:35;;;;;;;14.02;8.55;;;4.40;75.40;;;;;;5072436;28;20016;-69
2022/11/19 18:52:10;;;;;;;13.35;8.05;;;4.30;75.70;;;;;;5062286;28;20060;-69
2022/11/19 18:54:36;;;;;;;13.85;8.50;;;4.30;76.10;;;;;;5056906;28;20029;-68
2022/11/19 18:57:02;;;;;;;14.30;9.23;;;4.20;76.00;;;;;;5056936;28;20108;-68
2022/11/19 18:59:28;;;;;;;12.60;8.40;;;4.20;76.60;;;;;;5068821;28;20116;-68
2022/11/19 19:01:54;;;;;;;12.18;8.13;;;4.20;76.30;;;;;;5071456;28;20043;-69
2022/11/19 19:04:20;;;;;;;12.90;8.45;;;4.10;76.70;;;;;;5064842;28;20480;-69
2022/11/19 19:06:46;;;;;;;12.27;8.15;;;4.20;77.00;;;;;;5061202;28;20025;-69
2022/11/19 19:09:18;;;;;;;13.73;9.13;;;4.30;76.90;;;;;;5066770;28;20638;-68
2022/11/19 19:14:32;;;;;;;12.25;8.50;;;4.40;76.30;;;;;;5073799;28;20537;-68
2022/11/19 19:16:57;;;;;;;15.30;9.25;;;4.30;76.40;;;;;;5072791;28;20032;-72
2022/11/19 19:19:23;;;;;;;15.95;9.75;;;4.30;76.40;;;;;;5069639;28;20036;-68
2022/11/19 19:21:48;;;;;;;16.73;10.23;;;4.30;76.50;;;;;;5073694;28;20052;-68
2022/11/19 19:24:14;;;;;;;19.05;9.80;;;4.40;76.10;;;;;;5073084;28;20389;-69
2022/11/19 19:26:40;;;;;;;17.05;9.90;;;4.40;76.20;;;;;;5074291;28;20035;-69
2022/11/19 19:29:06;;;;;;;13.85;9.57;;;4.30;75.80;;;;;;5076515;28;20040;-69
2022/11/19 19:31:32;;;;;;;14.40;9.35;;;4.30;76.20;;;;;;5080817;28;20016;-69
2022/11/19 19:33:57;;;;;;;12.93;8.32;;;4.20;76.30;;;;;;5087809;28;20036;-69
2022/11/19 19:36:24;;;;;;;18.17;11.23;;;4.00;76.60;;;;;;5074024;28;20029;-68
2022/11/19 19:38:49;;;;;;;11.00;7.70;;;5.10;99.90;;;;;;5078425;28;20039;-68
2022/11/19 19:41:18;;;;;;;11.55;8.05;;;5.00;90.20;;;;;;5094115;28;20028;-68
2022/11/19 19:43:46;;;;;;;11.10;7.25;;;4.60;85.70;;;;;;5082240;28;20109;-69
2022/11/19 19:46:15;;;;;;;11.95;7.47;;;4.40;85.30;;;;;;5072224;28;20119;-69
2022/11/19 19:48:45;;;;;;;12.38;8.63;;;4.40;84.40;;;;;;5067717;28;20028;-68
2022/11/19 19:51:12;;;;;;;10.75;7.78;;;4.40;82.90;;;;;;5071170;28;20361;-69
2022/11/19 19:53:40;;;;;;;10.55;7.60;;;4.30;82.60;;;;;;5068428;28;20397;-68
2022/11/19 19:56:13;;;;;;;11.90;7.40;;;4.40;82.10;;;;;;5064381;28;20031;-69
2022/11/19 19:58:39;;;;;;;11.77;8.40;;;4.30;81.50;;;;;;5059385;28;20031;-68
2022/11/19 20:01:07;;;;;;;13.32;8.68;;;4.30;81.50;;;;;;5065511;28;20037;-68
2022/11/19 20:03:33;;;;;;;10.35;7.15;;;4.30;81.60;;;;;;5067164;28;20055;-69
2022/11/19 20:06:00;;;;;;;11.70;8.80;;;4.40;81.40;;;;;;5066909;28;20533;-68
2022/11/19 20:08:26;;;;;;;11.32;8.15;;;4.50;80.60;;;;;;5066063;28;20032;-68
2022/11/19 20:10:52;;;;;;;12.45;7.97;;;4.30;80.20;;;;;;5068717;28;20500;-68
2022/11/19 20:13:27;;;;;;;13.40;8.43;;;4.20;80.80;;;;;;5068648;28;20067;-69
2022/11/19 20:15:58;;;;;;;10.30;7.00;;;4.30;81.00;;;;;;5072622;28;20041;-69
2022/11/19 20:18:24;;;;;;;12.50;8.23;;;4.40;81.00;;;;;;5071252;28;20112;-68
2022/11/19 20:20:50;;;;;;;18.20;10.63;;;4.40;80.00;;;;;;5079200;28;20480;-68
2022/11/19 20:23:16;;;;;;;13.93;9.63;;;4.50;80.00;;;;;;5079712;28;20029;-68
2022/11/19 20:25:42;;;;;;;13.02;8.77;;;4.50;79.60;;;;;;5080378;28;20377;-68
2022/11/19 20:28:08;;;;;;;12.00;8.50;;;4.40;79.20;;;;;;5080924;28;20112;-68
2022/11/19 20:30:33;;;;;;;13.35;9.10;;;4.30;79.50;;;;;;5081275;28;20025;-68
2022/11/19 20:33:00;;;;;;;12.80;8.68;;;4.40;79.30;;;;;;5080992;28;20089;-69
2022/11/19 20:35:26;;;;;;;13.40;8.43;;;4.20;79.00;;;;;;5081152;28;20380;-69
2022/11/19 20:37:53;;;;;;;13.65;8.73;;;4.20;79.70;;;;;;5069286;28;20025;-68
2022/11/19 20:40:18;;;;;;;12.30;8.10;;;4.20;79.70;;;;;;5081664;28;20550;-68
2022/11/19 20:45:28;;;;;;;13.60;8.82;;;4.30;79.90;;;;;;5082532;28;20098;-68
2022/11/19 20:47:53;;;;;;;14.25;8.85;;;4.30;79.60;;;;;;5080360;28;20037;-68
2022/11/19 20:50:19;;;;;;;12.38;8.00;;;4.20;79.60;;;;;;5081221;28;20452;-68
2022/11/19 20:52:44;;;;;;;13.05;8.88;;;4.10;80.20;;;;;;5082647;28;20024;-68
2022/11/19 20:55:10;;;;;;;13.23;8.95;;;4.10;80.30;;;;;;5082990;28;20366;-68
2022/11/19 20:57:36;;;;;;;12.75;8.70;;;4.10;80.30;;;;;;5083030;28;20032;-68
2022/11/19 21:00:02;;;;;;;11.55;7.97;;;4.00;80.40;;;;;;5099744;28;20033;-67
2022/11/19 21:02:28;;;;;;;12.45;8.52;;;3.90;80.50;;;;;;5069646;28;20108;-68
2022/11/19 21:04:55;;;;;;;10.95;7.80;;;3.90;80.80;;;;;;5083118;28;20089;-68
2022/11/19 21:07:20;;;;;;;9.80;7.45;;;4.00;81.10;;;;;;5082096;28;20074;-68
2022/11/19 21:09:46;;;;;;;13.27;8.13;;;4.10;81.00;;;;;;5083249;28;20024;-68
2022/11/19 21:12:12;;;;;;;11.57;7.57;;;4.30;80.40;;;;;;5083835;28;20032;-69
2022/11/19 21:14:37;;;;;;;14.30;8.65;;;4.40;80.00;;;;;;5081763;28;20047;-69
2022/11/19 21:17:03;;;;;;;12.32;8.23;;;4.40;79.40;;;;;;5081296;28;20109;-68
2022/11/19 21:19:29;;;;;;;13.27;8.20;;;4.20;79.10;;;;;;5080379;28;20028;-69
2022/11/19 21:21:54;;;;;;;12.70;8.15;;;4.20;79.70;;;;;;5082695;28;20028;-69
2022/11/19 21:24:20;;;;;;;11.05;7.57;;;4.10;79.80;;;;;;5083963;28;20457;-70
2022/11/19 21:26:46;;;;;;;10.80;7.97;;;4.20;80.10;;;;;;5082583;28;20032;-68
2022/11/19 21:29:11;;;;;;;12.60;8.43;;;4.30;80.10;;;;;;5081621;28;20036;-69
2022/11/19 21:31:37;;;;;;;11.43;8.23;;;4.30;79.50;;;;;;5078837;28;20074;-69
2022/11/19 21:34:16;;;;;;;15.73;9.20;;;4.40;79.50;;;;;;5073257;28;20036;-69
2022/11/19 21:36:43;;;;;;;12.10;8.20;;;4.40;79.50;;;;;;5091249;28;20031;-69
2022/11/19 21:39:10;;;;;;;12.10;8.27;;;4.50;79.50;;;;;;5075375;28;20033;-69
2022/11/19 21:41:36;;;;;;;13.25;8.85;;;4.60;79.40;;;;;;5075254;28;20369;-70
2022/11/19 21:44:03;;;;;;;19.40;10.55;;;4.70;79.10;;;;;;5074608;28;20494;-69
2022/11/19 21:46:29;;;;;;;18.05;10.95;;;4.70;78.90;;;;;;5090817;28;20032;-68
2022/11/19 21:48:55;;;;;;;14.50;9.77;;;4.60;78.90;;;;;;5073719;28;20033;-69
2022/11/19 21:51:21;;;;;;;15.52;10.02;;;4.60;78.60;;;;;;5074922;28;20021;-69
2022/11/19 21:53:47;;;;;;;18.48;10.45;;;4.60;78.40;;;;;;5075167;28;20146;-69
2022/11/19 21:56:12;;;;;;;14.85;9.98;;;4.50;78.60;;;;;;5074995;28;20349;-68
2022/11/19 21:58:38;;;;;;;15.10;9.68;;;4.50;78.70;;;;;;5075278;28;20047;-70
2022/11/19 22:01:04;;;;;;;14.32;9.20;;;4.40;78.90;;;;;;5073798;28;20037;-73
2022/11/19 22:03:32;;;;;;;16.88;9.15;;;4.40;79.30;;;;;;5073130;28;20052;-71
2022/11/19 22:06:09;;;;;;;17.13;10.48;;;4.40;79.30;;;;;;5074648;28;20029;-73
2022/11/19 22:08:38;;;;;;;16.83;11.13;;;4.40;79.10;;;;;;5090417;28;20025;-70
2022/11/19 22:13:50;;;;;;;17.27;11.23;;;4.00;79.90;;;;;;5082780;28;20132;-71
2022/11/19 22:16:15;;;;;;;21.27;13.50;;;3.80;80.70;;;;;;5090216;28;20032;-71
2022/11/19 22:18:41;;;;;;;21.50;13.85;;;3.90;81.00;;;;;;5058770;28;20471;-71
2022/11/19 22:21:07;;;;;;;23.40;13.05;;;3.80;81.10;;;;;;5084019;28;20020;-71
2022/11/19 22:23:32;;;;;;;20.38;12.73;;;3.80;81.10;;;;;;5060725;28;20032;-71
2022/11/19 22:26:03;;;;;;;15.85;9.77;;;3.70;81.20;;;;;;5040511;28;20128;-71
2022/11/19 22:28:28;;;;;;;17.63;10.52;;;3.50;81.70;;;;;;5087682;28;20082;-71
2022/11/19 22:30:55;;;;;;;18.30;11.00;;;3.30;82.40;;;;;;5080472;28;20025;-71
2022/11/19 22:33:20;;;;;;;19.90;11.35;;;3.10;82.90;;;;;;5063572;28;20029;-73
2022/11/19 22:35:46;;;;;;;17.02;10.52;;;3.10;83.60;;;;;;5073198;28;20526;-71
2022/11/19 22:38:12;;;;;;;15.77;9.73;;;3.00;83.90;;;;;;5069119;28;20036;-70
2022/11/19 22:40:38;;;;;;;15.75;9.57;;;3.00;84.10;;;;;;5046949;28;20386;-70
2022/11/19 22:43:03;;;;;;;17.02;10.77;;;3.10;83.90;;;;;;5072667;28;20036;-70
2022/11/19 22:45:30;;;;;;;16.52;10.35;;;3.20;83.30;;;;;;5073271;28;20036;-70
2022/11/19 22:47:56;;;;;;;13.02;8.43;;;3.30;83.20;;;;;;5073921;28;20028;-69
2022/11/19 22:50:22;;;;;;;13.23;8.30;;;3.50;83.00;;;;;;5074435;28;20024;-70
2022/11/19 22:52:48;;;;;;;13.88;8.52;;;3.70;82.80;;;;;;5073105;28;20039;-70
2022/11/19 22:55:13;;;;;;;13.02;8.27;;;3.90;82.40;;;;;;5056285;28;20029;-70
2022/11/19 22:57:39;;;;;;;13.93;8.48;;;4.00;82.00;;;;;;5073954;28;20098;-70
2022/11/19 23:00:11;;;;;;;12.68;8.73;;;4.10;81.70;;;;;;5073035;28;20108;-70
2022/11/19 23:02:38;;;;;;;14.48;9.13;;;4.20;81.70;;;;;;5074037;28;20086;-70
2022/11/19 23:05:04;;;;;;;13.07;8.63;;;4.30;81.70;;;;;;5074116;28;20140;-70
2022/11/19 23:07:32;;;;;;;15.52;9.05;;;4.40;81.50;;;;;;5072655;28;20036;-70
2022/11/19 23:09:57;;;;;;;12.20;8.68;;;4.40;81.20;;;;;;5072890;28;20039;-70
2022/11/19 23:15:08;;;;;;;14.25;10.05;;;4.50;80.80;;;;;;5073845;28;20039;-70
2022/11/19 23:17:39;;;;;;;15.60;9.75;;;4.50;80.40;;;;;;5072194;28;20032;-70
2022/11/19 23:20:05;;;;;;;14.57;9.73;;;4.60;80.50;;;;;;5073978;28;20040;-70
2022/11/19 23:22:31;;;;;;;13.10;8.90;;;4.60;80.30;;;;;;5072399;28;20446;-71
2022/11/19 23:24:57;;;;;;;16.90;9.80;;;4.60;80.30;;;;;;5055923;28;20043;-70
2022/11/19 23:27:22;;;;;;;14.27;9.32;;;4.60;79.90;;;;;;5055781;28;20028;-70
2022/11/19 23:29:48;;;;;;;13.98;9.38;;;4.50;79.90;;;;;;5072638;28;20043;-70
2022/11/19 23:32:13;;;;;;;18.92;10.23;;;4.50;80.10;;;;;;5072305;28;20039;-70
2022/11/19 23:34:39;;;;;;;17.30;11.30;;;4.50;80.60;;;;;;5073527;28;20479;-70
2022/11/19 23:37:04;;;;;;;15.23;9.65;;;4.50;79.90;;;;;;5072214;28;20050;-70
2022/11/19 23:39:30;;;;;;;17.35;10.18;;;4.50;79.90;;;;;;5073744;28;20029;-70
2022/11/19 23:41:56;;;;;;;15.10;9.40;;;4.50;79.80;;;;;;5073407;28;20036;-70
2022/11/19 23:44:21;;;;;;;13.15;9.15;;;4.50;79.70;;;;;;5072366;28;20090;-70
2022/11/19 23:46:47;;;;;;;14.82;9.30;;;4.40;79.80;;;;;;5073207;28;20063;-70
2022/11/19 23:49:12;;;;;;;14.05;8.50;;;4.40;79.80;;;;;;5054936;28;20032;-70
2022/11/19 23:51:39;;;;;;;13.15;8.25;;;4.40;79.70;;;;;;5073525;28;20040;-70
2022/11/19 23:54:05;;;;;;;11.68;8.32;;;4.50;79.70;;;;;;5072276;28;20506;-70
2022/11/19 23:56:32;;;;;;;15.15;8.98;;;4.60;79.60;;;;;;5073211;28;20025;-70
2022/11/19 23:59:02;;;;;;;13.10;8.30;;;4.60;79.70;;;;;;5072202;28;20034;-70
